Terminal Aerodrome Forecast
Issued by NWS Huntsville, AL

Home | Current Version | Previous Version | Text Only | Print | Product List | Glossary On
Versions: 1 2 3 4 5 6 7 8 9 10 11 12 13 14 15 16 17 18 19 20 21 22 23 24
000
FTUS44 KHUN 301120
TAFHSV
TAF
KHSV 301120Z 3012/3112 16005KT P6SM -SHRA SCT050 BKN150
     FM301800 20007KT P6SM -TSRA BKN040CB
      TEMPO 3020/3024 4SM TSRA BR BKN025CB
     FM310600 17005KT P6SM SHRA BKN050=

USA.gov is the U.S. government's official web portal to all federal, state and local government web resources and services.